Time;durP1;ratioP1;P1;durP2;ratioP2;P2;SDS_P1;SDS_P2;PMS_P1;PMS_P2;Temp;Humidity;BMP_temperature;BMP_pressure;BME280_temperature;BME280_humidity;BME280_pressure;Samples;Min_cycle;Max_cycle;Signal;HPM_P1;HPM_P2
2022/11/14 00:01:24;;;;;;;32.63;15.83;;;6.60;88.30;;;;;;5003270;28;20191;-72
2022/11/14 00:03:50;;;;;;;29.37;16.07;;;6.60;88.40;;;;;;5005462;28;20793;-72
2022/11/14 00:06:15;;;;;;;30.93;16.33;;;6.60;88.40;;;;;;5001924;28;20655;-72
2022/11/14 00:08:41;;;;;;;28.20;15.73;;;6.60;88.30;;;;;;5003130;28;20181;-72
2022/11/14 00:11:08;;;;;;;29.27;14.73;;;6.50;88.40;;;;;;5005539;28;20189;-72
2022/11/14 00:13:34;;;;;;;26.33;13.90;;;6.50;88.40;;;;;;4985131;28;20184;-72
2022/11/14 00:16:00;;;;;;;26.53;14.57;;;6.50;88.40;;;;;;5003399;28;20722;-73
2022/11/14 00:18:26;;;;;;;30.83;14.80;;;6.50;88.30;;;;;;5002568;28;20191;-72
2022/11/14 00:20:52;;;;;;;25.80;13.87;;;6.40;88.50;;;;;;5002999;28;20243;-72
2022/11/14 00:23:19;;;;;;;26.83;14.17;;;6.40;88.40;;;;;;4986019;28;20188;-73
2022/11/14 00:25:45;;;;;;;32.63;15.43;;;6.40;88.30;;;;;;5004359;28;20189;-73
2022/11/14 00:28:11;;;;;;;35.17;14.43;;;6.40;88.40;;;;;;5003668;28;20181;-72
2022/11/14 00:30:37;;;;;;;25.87;13.87;;;6.40;88.40;;;;;;5002706;28;20256;-72
2022/11/14 00:33:03;;;;;;;31.03;15.37;;;6.30;88.50;;;;;;5003888;28;20239;-73
2022/11/14 00:35:28;;;;;;;27.40;14.27;;;6.30;88.50;;;;;;4988375;28;20189;-73
2022/11/14 00:37:54;;;;;;;27.03;15.40;;;6.30;88.50;;;;;;5002302;28;20185;-72
2022/11/14 00:40:20;;;;;;;28.57;15.03;;;6.30;88.50;;;;;;5004138;28;20731;-72
2022/11/14 00:42:45;;;;;;;32.47;15.73;;;6.20;88.50;;;;;;5004398;28;20185;-73
2022/11/14 00:45:11;;;;;;;29.20;14.97;;;6.20;88.60;;;;;;5005525;28;20655;-73
2022/11/14 00:47:37;;;;;;;37.67;16.27;;;6.20;88.70;;;;;;5009162;28;20188;-72
2022/11/14 00:50:04;;;;;;;29.30;15.33;;;6.20;88.70;;;;;;5006440;28;20209;-72
2022/11/14 00:52:29;;;;;;;26.77;14.83;;;6.10;88.70;;;;;;5005093;28;20540;-72
2022/11/14 00:54:55;;;;;;;30.50;14.37;;;6.10;88.70;;;;;;5007354;28;20200;-72
2022/11/14 00:57:21;;;;;;;29.23;15.13;;;6.10;88.70;;;;;;5007067;28;20184;-72
2022/11/14 00:59:46;;;;;;;29.40;15.40;;;6.10;88.70;;;;;;5008652;28;20216;-72
2022/11/14 01:02:12;;;;;;;31.97;15.93;;;6.10;88.70;;;;;;5007407;28;20189;-73
2022/11/14 01:04:37;;;;;;;27.10;15.33;;;6.00;88.80;;;;;;5006252;28;20276;-73
2022/11/14 01:07:03;;;;;;;35.47;15.30;;;6.00;88.70;;;;;;5006955;28;20213;-73
2022/11/14 01:09:29;;;;;;;29.77;15.00;;;6.00;88.70;;;;;;5008775;28;20208;-73
2022/11/14 01:11:54;;;;;;;28.20;14.57;;;6.00;88.80;;;;;;4988142;28;20184;-72
2022/11/14 01:14:20;;;;;;;33.73;14.27;;;6.00;88.80;;;;;;5008035;28;20236;-73
2022/11/14 01:16:46;;;;;;;28.53;15.13;;;6.00;88.90;;;;;;5004221;28;20193;-72
2022/11/14 01:19:11;;;;;;;29.87;14.63;;;5.90;88.80;;;;;;5005672;28;20185;-72
2022/11/14 01:21:37;;;;;;;21.03;13.67;;;5.90;88.80;;;;;;5006749;28;20682;-72
2022/11/14 01:24:03;;;;;;;26.30;15.17;;;5.90;88.80;;;;;;5007302;28;20661;-72
2022/11/14 01:26:28;;;;;;;24.33;14.70;;;5.90;88.70;;;;;;5003712;28;20225;-72
2022/11/14 01:28:54;;;;;;;28.43;15.07;;;5.90;88.80;;;;;;5008885;28;20221;-72
2022/11/14 01:31:22;;;;;;;26.07;14.43;;;5.80;88.80;;;;;;5006992;28;20185;-72
2022/11/14 01:33:49;;;;;;;33.60;15.07;;;5.80;88.80;;;;;;4989632;28;20690;-72
2022/11/14 01:36:15;;;;;;;23.57;14.27;;;5.80;88.70;;;;;;5007206;28;20247;-71
2022/11/14 01:38:41;;;;;;;31.17;15.23;;;5.80;88.70;;;;;;5006664;28;20176;-73
2022/11/14 01:41:07;;;;;;;33.70;14.90;;;5.80;88.80;;;;;;5008751;28;20195;-72
2022/11/14 01:43:36;;;;;;;35.27;15.73;;;5.80;88.80;;;;;;5006270;28;20192;-72
2022/11/14 01:46:10;;;;;;;25.77;14.63;;;5.70;88.90;;;;;;5005933;28;20263;-72
2022/11/14 01:48:44;;;;;;;28.23;14.10;;;5.70;89.00;;;;;;5006202;28;20180;-73
2022/11/14 01:51:21;;;;;;;25.80;13.43;;;5.70;88.70;;;;;;5006593;28;20200;-72
2022/11/14 01:53:52;;;;;;;23.53;13.10;;;5.70;88.90;;;;;;5006221;28;20255;-73
2022/11/14 01:56:24;;;;;;;21.40;12.97;;;5.60;88.80;;;;;;5006178;28;20725;-72
2022/11/14 01:59:12;;;;;;;28.97;14.37;;;5.60;89.20;;;;;;4985666;28;20192;-73
2022/11/14 02:01:44;;;;;;;28.67;13.93;;;5.60;89.50;;;;;;5006013;28;20181;-71
2022/11/14 02:04:13;;;;;;;27.93;14.03;;;5.60;89.60;;;;;;5006291;28;20243;-72
2022/11/14 02:06:39;;;;;;;31.03;14.57;;;5.60;89.50;;;;;;5005043;28;20196;-72
2022/11/14 02:09:06;;;;;;;35.87;15.63;;;5.50;89.60;;;;;;5005308;28;20275;-73
2022/11/14 02:11:37;;;;;;;33.87;15.37;;;5.50;89.50;;;;;;5005481;28;20173;-73
2022/11/14 02:14:03;;;;;;;29.93;14.57;;;5.50;89.50;;;;;;4987719;28;20276;-72
2022/11/14 02:16:28;;;;;;;31.40;14.67;;;5.40;89.50;;;;;;5007597;28;20279;-72
2022/11/14 02:18:54;;;;;;;29.90;13.77;;;5.40;89.50;;;;;;5005611;28;20613;-72
2022/11/14 02:21:20;;;;;;;27.50;13.63;;;5.40;89.70;;;;;;5004468;28;20733;-72
2022/11/14 02:23:46;;;;;;;26.17;14.57;;;5.40;89.60;;;;;;5005505;28;20181;-72
2022/11/14 02:26:11;;;;;;;30.20;14.63;;;5.40;89.60;;;;;;5005408;28;20188;-72
2022/11/14 02:28:37;;;;;;;28.03;14.87;;;5.30;89.40;;;;;;5004975;28;20177;-73
2022/11/14 02:31:03;;;;;;;25.63;12.33;;;5.30;89.60;;;;;;5005886;28;20621;-72
2022/11/14 02:33:28;;;;;;;32.33;14.00;;;5.30;89.50;;;;;;5005548;28;20243;-73
2022/11/14 02:35:54;;;;;;;30.20;14.30;;;5.30;89.30;;;;;;5005922;28;20197;-73
2022/11/14 02:38:20;;;;;;;28.87;12.90;;;5.30;89.50;;;;;;5003141;28;20185;-73
2022/11/14 02:40:45;;;;;;;34.20;12.90;;;5.20;89.40;;;;;;5002581;28;20254;-72
2022/11/14 02:43:11;;;;;;;28.90;13.77;;;5.20;89.30;;;;;;5004429;28;20243;-73
2022/11/14 02:45:37;;;;;;;27.63;12.93;;;5.20;89.30;;;;;;5006569;28;20195;-73
2022/11/14 02:48:03;;;;;;;22.53;12.97;;;5.30;89.50;;;;;;5004928;28;20255;-73
2022/11/14 02:50:28;;;;;;;25.53;13.93;;;5.30;89.50;;;;;;5003533;28;20221;-72
2022/11/14 02:52:54;;;;;;;25.37;14.70;;;5.30;89.40;;;;;;5004114;28;20181;-73
2022/11/14 02:55:20;;;;;;;28.07;14.17;;;5.30;89.40;;;;;;5005320;28;20280;-72
2022/11/14 02:57:46;;;;;;;25.33;13.37;;;5.20;89.40;;;;;;5004352;28;20188;-72
2022/11/14 03:00:12;;;;;;;30.57;13.83;;;5.20;89.30;;;;;;5004902;28;20193;-72
2022/11/14 03:02:38;;;;;;;24.23;12.47;;;5.20;89.30;;;;;;5003885;28;20192;-71
2022/11/14 03:05:04;;;;;;;27.17;14.37;;;5.20;89.30;;;;;;5004563;28;20212;-73
2022/11/14 03:07:29;;;;;;;22.83;12.97;;;5.20;89.30;;;;;;5004047;28;21014;-73
2022/11/14 03:09:55;;;;;;;23.17;11.77;;;5.20;89.30;;;;;;5001969;28;20666;-73
2022/11/14 03:12:21;;;;;;;25.63;13.10;;;5.20;89.30;;;;;;5004875;28;20730;-73
2022/11/14 03:14:46;;;;;;;29.90;14.27;;;5.10;89.30;;;;;;5004598;28;20181;-72
2022/11/14 03:17:12;;;;;;;26.00;12.60;;;5.10;89.30;;;;;;5003062;28;21118;-72
2022/11/14 03:19:38;;;;;;;20.53;12.03;;;5.10;89.30;;;;;;5004972;28;20199;-73
2022/11/14 03:22:04;;;;;;;27.53;13.00;;;5.10;89.20;;;;;;5004218;28;20629;-72
2022/11/14 03:24:29;;;;;;;27.47;13.00;;;5.10;89.30;;;;;;5003876;28;20185;-73
2022/11/14 03:26:55;;;;;;;29.63;12.87;;;5.10;89.40;;;;;;5004746;28;20268;-71
2022/11/14 03:29:21;;;;;;;24.60;12.13;;;5.00;89.40;;;;;;5004957;28;20222;-72
2022/11/14 03:31:46;;;;;;;23.93;10.97;;;5.00;89.50;;;;;;5004477;28;20185;-73
2022/11/14 03:34:12;;;;;;;27.43;12.10;;;5.00;89.20;;;;;;4985575;28;20205;-72
2022/11/14 03:36:38;;;;;;;27.20;13.33;;;5.00;89.20;;;;;;5004152;28;20224;-73
2022/11/14 03:39:04;;;;;;;20.57;11.20;;;4.90;89.20;;;;;;5004330;28;20273;-72
2022/11/14 03:41:30;;;;;;;18.30;10.93;;;4.90;89.20;;;;;;5004334;28;20181;-71
2022/11/14 03:43:56;;;;;;;23.43;11.70;;;4.90;89.10;;;;;;5004037;28;20267;-71
2022/11/14 03:46:22;;;;;;;21.30;11.97;;;4.90;89.30;;;;;;5002711;28;20185;-72
2022/11/14 03:48:47;;;;;;;25.43;11.40;;;4.80;89.20;;;;;;5003038;28;20185;-71
2022/11/14 03:51:13;;;;;;;23.10;11.73;;;4.80;89.20;;;;;;5005968;28;20179;-72
2022/11/14 03:53:39;;;;;;;33.07;13.00;;;4.80;89.30;;;;;;5003451;28;20983;-71
2022/11/14 03:56:05;;;;;;;21.87;11.53;;;4.80;89.30;;;;;;5004078;28;20239;-72
2022/11/14 03:58:30;;;;;;;23.97;12.10;;;4.80;89.50;;;;;;5004061;28;20260;-72
2022/11/14 04:00:57;;;;;;;20.27;11.40;;;4.70;89.60;;;;;;5004373;28;20212;-72
2022/11/14 04:03:23;;;;;;;20.37;10.10;;;4.70;89.50;;;;;;5002181;28;20180;-72
2022/11/14 04:05:50;;;;;;;21.93;12.20;;;4.70;89.90;;;;;;5003013;28;20192;-72
2022/11/14 04:08:16;;;;;;;23.10;12.20;;;4.70;90.50;;;;;;5006093;28;20212;-71
2022/11/14 04:10:42;;;;;;;20.93;11.23;;;4.70;90.30;;;;;;5005214;28;20200;-71
2022/11/14 04:13:08;;;;;;;23.40;11.30;;;4.70;90.20;;;;;;5004580;28;20181;-71
2022/11/14 04:15:34;;;;;;;21.17;10.87;;;4.60;90.10;;;;;;5004364;28;20188;-72
2022/11/14 04:17:59;;;;;;;19.83;10.23;;;4.60;90.40;;;;;;5004128;28;20181;-72
2022/11/14 04:20:25;;;;;;;13.10;9.07;;;4.60;90.50;;;;;;5005430;28;20185;-72
2022/11/14 04:22:51;;;;;;;18.50;9.77;;;4.70;90.60;;;;;;5006261;28;20188;-72
2022/11/14 04:25:17;;;;;;;16.27;9.80;;;4.70;90.40;;;;;;5006935;28;20215;-72
2022/11/14 04:27:42;;;;;;;15.47;8.80;;;4.70;90.70;;;;;;5005105;28;20187;-72
2022/11/14 04:30:09;;;;;;;17.73;9.87;;;4.70;90.60;;;;;;5006091;28;20244;-72
2022/11/14 04:32:35;;;;;;;18.77;9.37;;;4.70;90.60;;;;;;5004790;28;20988;-72
2022/11/14 04:35:01;;;;;;;19.33;9.63;;;4.70;90.60;;;;;;5005019;28;20177;-72
2022/11/14 04:37:26;;;;;;;22.27;10.93;;;4.80;91.10;;;;;;4991295;28;20196;-72
2022/11/14 04:39:52;;;;;;;20.70;9.93;;;4.80;91.20;;;;;;5005910;28;20185;-72
2022/11/14 04:42:18;;;;;;;21.43;9.80;;;4.80;91.40;;;;;;5007636;28;20204;-72
2022/11/14 04:44:43;;;;;;;22.03;10.90;;;4.80;91.40;;;;;;5007826;28;20673;-72
2022/11/14 04:47:09;;;;;;;23.00;11.43;;;4.80;91.00;;;;;;5009532;28;20193;-73
2022/11/14 04:49:35;;;;;;;19.03;10.50;;;4.70;90.90;;;;;;5005069;28;20299;-72
2022/11/14 04:52:00;;;;;;;21.20;10.10;;;4.70;90.60;;;;;;5004294;28;20353;-72
2022/11/14 04:54:26;;;;;;;21.63;10.93;;;4.70;90.70;;;;;;5006047;28;20227;-72
2022/11/14 04:56:52;;;;;;;23.97;11.73;;;4.70;91.20;;;;;;5004759;28;20280;-72
2022/11/14 04:59:17;;;;;;;18.87;10.37;;;4.70;91.10;;;;;;5001337;28;20596;-73
2022/11/14 05:01:43;;;;;;;23.67;10.53;;;4.70;91.90;;;;;;5006101;28;20268;-71
2022/11/14 05:04:09;;;;;;;25.40;11.67;;;4.80;91.80;;;;;;5006769;28;20205;-71
2022/11/14 05:06:34;;;;;;;20.80;9.93;;;4.80;92.20;;;;;;4988339;28;20662;-72
2022/11/14 05:09:00;;;;;;;19.50;9.97;;;4.80;92.20;;;;;;5006317;28;20295;-70
2022/11/14 05:11:26;;;;;;;23.27;11.97;;;4.80;92.40;;;;;;5006973;28;20236;-70
2022/11/14 05:13:51;;;;;;;24.77;10.93;;;4.80;92.80;;;;;;4988268;28;20190;-70
2022/11/14 05:16:17;;;;;;;18.63;9.83;;;4.70;92.40;;;;;;5007367;28;20276;-70
2022/11/14 05:18:43;;;;;;;22.70;11.53;;;4.80;92.20;;;;;;5003170;28;20181;-72
2022/11/14 05:21:15;;;;;;;23.27;11.33;;;4.70;91.80;;;;;;4990788;28;20291;-72
2022/11/14 05:23:41;;;;;;;20.03;10.53;;;4.70;91.50;;;;;;5004782;28;20267;-72
2022/11/14 05:26:09;;;;;;;18.13;9.73;;;4.80;92.10;;;;;;5007532;28;20215;-72
2022/11/14 05:28:34;;;;;;;19.07;10.73;;;4.80;92.80;;;;;;5006125;28;20181;-72
2022/11/14 05:31:09;;;;;;;19.97;11.17;;;4.90;92.90;;;;;;5007393;28;20244;-72
2022/11/14 05:33:35;;;;;;;16.13;10.00;;;4.90;92.50;;;;;;5005329;28;20654;-74
2022/11/14 05:36:05;;;;;;;20.23;11.70;;;4.90;92.50;;;;;;5006041;28;20213;-72
2022/11/14 05:38:31;;;;;;;23.10;10.60;;;5.00;92.30;;;;;;5006905;28;20208;-73
2022/11/14 05:40:57;;;;;;;26.40;10.87;;;5.00;92.20;;;;;;5004753;28;20689;-73
2022/11/14 05:43:22;;;;;;;20.87;11.13;;;5.00;92.20;;;;;;5002849;28;20568;-70
2022/11/14 05:45:48;;;;;;;18.20;9.13;;;5.00;92.90;;;;;;4988150;28;20181;-73
2022/11/14 05:48:14;;;;;;;23.50;11.43;;;5.10;92.90;;;;;;5005701;28;20181;-72
2022/11/14 05:50:39;;;;;;;19.90;10.37;;;5.10;92.70;;;;;;4988149;28;21016;-73
2022/11/14 05:53:05;;;;;;;22.77;10.03;;;5.10;92.90;;;;;;5006084;28;20204;-73
2022/11/14 05:55:30;;;;;;;21.90;10.67;;;5.20;92.80;;;;;;5007083;28;20251;-72
2022/11/14 05:57:59;;;;;;;23.13;10.93;;;5.20;92.40;;;;;;5008763;28;20180;-71
2022/11/14 06:00:26;;;;;;;18.73;10.53;;;5.20;91.90;;;;;;5009765;28;20951;-69
2022/11/14 06:02:55;;;;;;;20.43;10.60;;;5.20;91.80;;;;;;4988685;28;20653;-71
2022/11/14 06:05:21;;;;;;;15.47;9.63;;;5.30;91.80;;;;;;5005875;28;20184;-69
2022/11/14 06:07:53;;;;;;;17.37;10.40;;;5.30;92.00;;;;;;5005852;28;20208;-69
2022/11/14 06:10:18;;;;;;;24.23;10.23;;;5.40;92.30;;;;;;5004984;28;20306;-69
2022/11/14 06:12:44;;;;;;;20.13;11.07;;;5.50;93.20;;;;;;5005558;28;20863;-69
2022/11/14 06:15:10;;;;;;;19.33;9.67;;;5.50;92.90;;;;;;5006448;28;20651;-70
2022/11/14 06:17:35;;;;;;;17.07;9.97;;;5.50;92.20;;;;;;5005614;28;20177;-70
2022/11/14 06:20:01;;;;;;;21.30;10.20;;;5.50;92.50;;;;;;5004692;28;20187;-70
2022/11/14 06:22:27;;;;;;;20.77;9.67;;;5.50;91.70;;;;;;5006034;28;20579;-70
2022/11/14 06:24:52;;;;;;;14.47;9.37;;;5.60;92.40;;;;;;5004548;28;20177;-69
2022/11/14 06:27:18;;;;;;;20.90;9.27;;;5.60;93.20;;;;;;5004968;28;20188;-70
2022/11/14 06:29:43;;;;;;;15.63;8.90;;;5.60;92.30;;;;;;4987413;28;20231;-70
2022/11/14 06:32:09;;;;;;;18.13;10.43;;;5.60;92.30;;;;;;5003985;28;20185;-70
2022/11/14 06:34:35;;;;;;;19.20;9.70;;;5.70;92.40;;;;;;5004768;28;20223;-71
2022/11/14 06:37:00;;;;;;;20.07;11.27;;;5.70;92.10;;;;;;5004495;28;20213;-71
2022/11/14 06:39:26;;;;;;;24.57;10.27;;;5.70;92.60;;;;;;5004059;28;20664;-70
2022/11/14 06:41:52;;;;;;;18.37;9.80;;;5.70;92.50;;;;;;5004209;28;20568;-71
2022/11/14 06:44:17;;;;;;;15.83;9.70;;;5.70;91.80;;;;;;5004504;28;20725;-70
2022/11/14 06:46:43;;;;;;;19.90;9.10;;;5.70;92.10;;;;;;5004403;28;20678;-70
2022/11/14 06:49:09;;;;;;;16.50;9.33;;;5.70;92.20;;;;;;5004233;28;20232;-70
2022/11/14 06:51:34;;;;;;;19.43;9.57;;;5.70;92.20;;;;;;5004011;28;20187;-70
2022/11/14 06:54:00;;;;;;;19.87;8.70;;;5.60;91.20;;;;;;5004064;28;20199;-70
2022/11/14 06:56:25;;;;;;;15.57;8.37;;;5.60;91.20;;;;;;5005328;28;20188;-70
2022/11/14 06:58:51;;;;;;;15.23;8.23;;;5.60;91.30;;;;;;5004317;28;20267;-70
2022/11/14 07:01:22;;;;;;;14.83;6.97;;;5.70;91.50;;;;;;5006399;28;20193;-70
2022/11/14 07:03:48;;;;;;;17.93;8.20;;;5.70;92.00;;;;;;5005653;28;20181;-71
2022/11/14 07:06:16;;;;;;;15.50;8.60;;;5.80;91.60;;;;;;5007395;28;20185;-70
2022/11/14 07:08:42;;;;;;;15.70;8.53;;;5.80;91.80;;;;;;5002557;28;20181;-71
2022/11/14 07:11:10;;;;;;;15.43;8.47;;;5.90;92.10;;;;;;5004270;28;20270;-71
2022/11/14 07:13:37;;;;;;;14.77;8.57;;;5.90;91.70;;;;;;5004157;28;20182;-71
2022/11/14 07:16:03;;;;;;;15.27;8.87;;;6.00;92.00;;;;;;5005730;28;20201;-71
2022/11/14 07:18:30;;;;;;;20.73;9.77;;;6.00;91.40;;;;;;5005644;28;20181;-70
2022/11/14 07:21:05;;;;;;;14.40;8.97;;;6.00;91.40;;;;;;5004167;28;20261;-71
2022/11/14 07:23:32;;;;;;;14.50;9.27;;;5.90;91.10;;;;;;5003382;28;20185;-71
2022/11/14 07:26:05;;;;;;;18.33;9.47;;;5.90;91.10;;;;;;5004728;28;20184;-70
2022/11/14 07:28:33;;;;;;;20.43;10.60;;;5.80;91.00;;;;;;5002874;28;20597;-70
2022/11/14 07:31:02;;;;;;;17.07;8.80;;;5.90;91.80;;;;;;5004573;28;21034;-70
2022/11/14 07:33:28;;;;;;;21.67;10.63;;;5.90;91.60;;;;;;5003929;28;20184;-70
2022/11/14 07:35:54;;;;;;;16.33;9.87;;;5.90;91.40;;;;;;5004431;28;20900;-69
2022/11/14 07:38:20;;;;;;;23.57;11.57;;;5.90;91.20;;;;;;5002435;28;20201;-70
2022/11/14 07:41:02;;;;;;;22.07;10.63;;;5.90;91.40;;;;;;5004035;28;20542;-71
2022/11/14 07:43:28;;;;;;;21.53;10.90;;;6.00;91.90;;;;;;5002696;28;20584;-70
2022/11/14 07:45:58;;;;;;;17.80;9.87;;;5.90;91.50;;;;;;5001865;28;20188;-72
2022/11/14 07:48:24;;;;;;;19.20;10.47;;;6.00;91.50;;;;;;5004305;28;20191;-71
2022/11/14 07:50:50;;;;;;;18.03;10.33;;;6.00;91.70;;;;;;5003522;28;20743;-70
2022/11/14 07:53:16;;;;;;;21.70;11.73;;;6.00;91.60;;;;;;5002124;28;20268;-71
2022/11/14 07:55:42;;;;;;;19.87;10.87;;;6.10;91.80;;;;;;5002207;28;20203;-71
2022/11/14 07:58:08;;;;;;;20.67;10.83;;;6.10;91.40;;;;;;5002231;28;20181;-70
2022/11/14 08:00:34;;;;;;;19.83;10.40;;;6.30;92.30;;;;;;5003686;28;20702;-70
2022/11/14 08:02:59;;;;;;;15.50;9.30;;;6.30;91.60;;;;;;5001455;28;20224;-71
2022/11/14 08:05:25;;;;;;;15.47;10.03;;;6.40;91.90;;;;;;4984447;28;20189;-70
2022/11/14 08:07:51;;;;;;;22.53;11.33;;;6.40;91.60;;;;;;5001074;28;20177;-71
2022/11/14 08:10:18;;;;;;;19.40;10.97;;;6.50;91.80;;;;;;4998461;28;20228;-71
2022/11/14 08:12:44;;;;;;;17.00;10.53;;;6.50;91.20;;;;;;5002696;28;20237;-71
2022/11/14 08:15:12;;;;;;;19.23;10.90;;;6.60;91.40;;;;;;5002489;28;20263;-71
2022/11/14 08:17:38;;;;;;;19.43;11.30;;;6.70;91.70;;;;;;5003018;28;20208;-70
2022/11/14 08:20:04;;;;;;;18.83;10.50;;;6.80;91.30;;;;;;5002077;28;20279;-71
2022/11/14 08:22:30;;;;;;;27.73;12.83;;;6.90;91.60;;;;;;5001026;28;20196;-71
2022/11/14 08:24:56;;;;;;;20.47;12.23;;;6.90;91.50;;;;;;5000428;28;21044;-71
2022/11/14 08:27:22;;;;;;;23.80;12.33;;;7.00;90.80;;;;;;5004949;28;20224;-71
2022/11/14 08:29:49;;;;;;;24.37;12.70;;;7.00;90.70;;;;;;5001411;28;20274;-71
2022/11/14 08:32:16;;;;;;;25.60;12.30;;;7.10;90.80;;;;;;5001982;28;20180;-72
2022/11/14 08:34:42;;;;;;;27.73;12.43;;;7.20;91.10;;;;;;5000787;28;20181;-71
2022/11/14 08:37:08;;;;;;;25.00;12.73;;;7.30;91.60;;;;;;5001068;28;20768;-71
2022/11/14 08:39:33;;;;;;;25.60;13.60;;;7.40;91.30;;;;;;5000493;28;20185;-70
2022/11/14 08:41:59;;;;;;;26.97;13.83;;;7.40;90.60;;;;;;5004116;28;20189;-72
2022/11/14 08:44:25;;;;;;;28.93;14.87;;;7.50;90.60;;;;;;5003182;28;20572;-71
2022/11/14 08:46:50;;;;;;;27.90;13.93;;;7.60;90.50;;;;;;5003431;28;20646;-71
2022/11/14 08:49:16;;;;;;;29.47;13.50;;;7.70;90.60;;;;;;5004694;28;20237;-71
2022/11/14 08:51:42;;;;;;;26.07;13.87;;;7.90;90.40;;;;;;5003033;28;20750;-71
2022/11/14 08:54:07;;;;;;;26.67;14.00;;;8.00;90.30;;;;;;5003143;28;20709;-71
2022/11/14 08:56:33;;;;;;;22.43;12.87;;;8.10;90.00;;;;;;5004573;28;20585;-72
2022/11/14 08:59:02;;;;;;;26.57;14.37;;;8.20;89.80;;;;;;5000499;28;20945;-70
2022/11/14 09:01:28;;;;;;;26.87;13.27;;;8.30;90.00;;;;;;5000942;28;20235;-71
2022/11/14 09:03:53;;;;;;;23.40;12.57;;;8.40;89.50;;;;;;5001531;28;20317;-71
2022/11/14 09:06:19;;;;;;;21.43;12.60;;;8.60;90.00;;;;;;5003172;28;20189;-70
2022/11/14 09:08:45;;;;;;;23.60;13.00;;;8.80;89.60;;;;;;5007982;28;20667;-72
2022/11/14 09:11:10;;;;;;;29.50;15.47;;;8.90;89.50;;;;;;5005488;28;20227;-72
2022/11/14 09:13:36;;;;;;;25.33;12.23;;;9.10;88.70;;;;;;5007429;28;20263;-72
2022/11/14 09:16:02;;;;;;;25.43;12.67;;;9.40;89.30;;;;;;5004219;28;20185;-70
2022/11/14 09:18:29;;;;;;;26.33;13.23;;;9.80;90.10;;;;;;5004386;28;20195;-71
2022/11/14 09:20:59;;;;;;;30.27;14.07;;;10.30;89.80;;;;;;5003289;28;20192;-71
2022/11/14 09:23:25;;;;;;;28.13;14.40;;;10.80;89.10;;;;;;5008317;28;20660;-71
2022/11/14 09:25:51;;;;;;;26.55;14.80;;;11.30;88.50;;;;;;5006678;28;20184;-71
2022/11/14 09:28:16;;;;;;;24.95;14.18;;;12.00;87.50;;;;;;5001668;28;20182;-71
2022/11/14 09:30:42;;;;;;;28.48;15.82;;;12.90;86.00;;;;;;5004452;28;20248;-71
2022/11/14 09:33:08;;;;;;;27.27;14.85;;;13.80;83.60;;;;;;5005096;28;20650;-70
2022/11/14 09:35:35;;;;;;;28.95;16.27;;;14.80;81.90;;;;;;5003960;28;20169;-71
2022/11/14 09:38:04;;;;;;;32.33;16.70;;;15.80;79.30;;;;;;5003115;28;20173;-70
2022/11/14 09:40:37;;;;;;;25.88;15.98;;;16.80;76.50;;;;;;5006070;28;20298;-71
2022/11/14 09:43:52;;;;;;;26.58;16.40;;;17.70;73.60;;;;;;5005460;28;20184;-71
2022/11/14 09:46:26;;;;;;;24.73;15.80;;;18.70;71.30;;;;;;4883442;29;20208;-71
2022/11/14 09:48:52;;;;;;;30.83;17.98;;;19.50;68.00;;;;;;4885345;29;20201;-70
2022/11/14 09:51:31;;;;;;;23.85;16.60;;;20.10;66.70;;;;;;4886570;29;20213;-71
2022/11/14 09:54:19;;;;;;;28.30;17.67;;;20.60;65.90;;;;;;4883414;29;20527;-70
2022/11/14 09:56:45;;;;;;;30.67;18.42;;;20.90;64.10;;;;;;4886830;29;20288;-71
2022/11/14 09:59:11;;;;;;;32.20;20.15;;;21.20;63.70;;;;;;4885154;29;20276;-72
2022/11/14 10:01:52;;;;;;;35.40;19.75;;;21.40;61.80;;;;;;4887244;29;20688;-69
2022/11/14 10:04:44;;;;;;;25.77;17.60;;;21.60;62.10;;;;;;4887058;29;20212;-70
2022/11/14 10:07:16;;;;;;;29.90;19.83;;;21.70;62.90;;;;;;4884662;29;20709;-70
2022/11/14 10:09:56;;;;;;;31.50;19.55;;;22.10;61.50;;;;;;4884436;29;20833;-71
2022/11/14 10:12:31;;;;;;;36.85;20.13;;;22.30;62.10;;;;;;4887495;29;20200;-70
2022/11/14 10:15:10;;;;;;;35.17;20.25;;;22.70;61.10;;;;;;4887279;29;20628;-70
2022/11/14 10:18:03;;;;;;;33.33;19.85;;;22.90;60.20;;;;;;4889601;29;20682;-71
2022/11/14 10:20:52;;;;;;;33.38;19.33;;;23.30;57.50;;;;;;4880675;29;20285;-71
2022/11/14 10:23:47;;;;;;;36.25;19.58;;;23.60;60.10;;;;;;4960014;28;20201;-69
2022/11/14 10:26:31;;;;;;;31.33;19.83;;;23.90;58.90;;;;;;4951057;28;20210;-70
2022/11/14 10:29:06;;;;;;;32.03;20.40;;;24.30;59.30;;;;;;4928117;28;20191;-71
2022/11/14 10:32:04;;;;;;;33.53;21.33;;;24.70;58.20;;;;;;4945571;28;20284;-70
2022/11/14 10:34:37;;;;;;;38.00;21.42;;;24.80;53.60;;;;;;4945334;28;20274;-71
2022/11/14 10:37:34;;;;;;;29.75;19.92;;;25.00;57.70;;;;;;4943957;28;20207;-70
2022/11/14 10:40:22;;;;;;;36.60;20.85;;;25.20;55.80;;;;;;4950475;28;21942;-70
2022/11/14 10:43:01;;;;;;;32.38;20.27;;;25.30;54.00;;;;;;4942797;28;20202;-70
2022/11/14 10:46:05;;;;;;;37.08;21.27;;;25.00;52.50;;;;;;4950054;28;20200;-71
2022/11/14 10:48:38;;;;;;;28.40;18.58;;;24.90;51.50;;;;;;4880492;29;20211;-71
2022/11/14 10:51:17;;;;;;;31.50;20.25;;;25.00;55.80;;;;;;4878648;29;20233;-71
2022/11/14 10:53:58;;;;;;;31.13;19.10;;;25.20;54.30;;;;;;4869022;29;20591;-70
2022/11/14 10:56:24;;;;;;;31.23;18.77;;;25.20;55.40;;;;;;4884099;29;20729;-69
2022/11/14 10:58:49;;;;;;;34.38;20.83;;;25.10;52.90;;;;;;4880679;29;20302;-69
2022/11/14 11:01:36;;;;;;;27.80;18.90;;;24.70;52.40;;;;;;4875161;29;20201;-70
2022/11/14 11:04:23;;;;;;;31.23;18.88;;;24.40;53.30;;;;;;4935828;28;20198;-70
2022/11/14 11:06:51;;;;;;;32.42;19.65;;;24.30;51.80;;;;;;4934153;28;20195;-71
2022/11/14 11:12:20;;;;;;;33.85;19.48;;;24.50;54.20;;;;;;4936787;28;20231;-70
2022/11/14 11:14:49;;;;;;;33.03;18.98;;;24.80;56.40;;;;;;4936455;28;20198;-69
2022/11/14 11:17:19;;;;;;;30.73;20.20;;;25.00;54.70;;;;;;4936256;28;20564;-70
2022/11/14 11:19:47;;;;;;;35.00;21.35;;;25.30;54.50;;;;;;4940667;28;20232;-71
2022/11/14 11:22:23;;;;;;;33.72;21.52;;;25.50;53.70;;;;;;4936506;28;20183;-70
2022/11/14 11:24:49;;;;;;;33.10;21.67;;;25.50;51.40;;;;;;4950224;28;20193;-70
2022/11/14 11:27:19;;;;;;;31.98;19.60;;;25.60;53.30;;;;;;5003469;28;20185;-70
2022/11/14 11:29:45;;;;;;;36.45;21.92;;;25.70;51.20;;;;;;5004304;28;20303;-70
2022/11/14 11:32:23;;;;;;;31.63;21.60;;;25.80;54.00;;;;;;5003401;28;20976;-71
2022/11/14 11:34:50;;;;;;;35.25;22.33;;;26.00;52.60;;;;;;5002596;28;20217;-70
2022/11/14 11:37:23;;;;;;;35.75;21.45;;;26.10;54.10;;;;;;5003555;28;21057;-69
2022/11/14 11:39:54;;;;;;;35.03;22.35;;;26.20;53.20;;;;;;5002351;28;20271;-69
2022/11/14 11:42:38;;;;;;;37.15;22.50;;;26.30;52.20;;;;;;5001784;28;20587;-71
2022/11/14 11:45:16;;;;;;;34.83;23.13;;;26.50;50.50;;;;;;5002223;28;20275;-72
2022/11/14 11:47:48;;;;;;;41.53;22.77;;;26.40;50.50;;;;;;5007390;28;20276;-72
2022/11/14 11:50:17;;;;;;;38.05;23.27;;;26.50;52.70;;;;;;5004756;28;20215;-71
2022/11/14 11:52:57;;;;;;;36.33;23.70;;;26.50;51.20;;;;;;5004731;28;20207;-73
2022/11/14 11:55:40;;;;;;;38.10;23.58;;;26.50;52.40;;;;;;5003835;28;20279;-69
2022/11/14 11:58:11;;;;;;;34.83;23.55;;;26.60;49.50;;;;;;5003634;28;20610;-69
2022/11/14 12:00:37;;;;;;;36.88;24.75;;;26.30;53.70;;;;;;5004496;28;20185;-70
2022/11/14 12:03:10;;;;;;;36.20;23.23;;;26.20;52.40;;;;;;5005481;28;20184;-70
2022/11/14 12:06:11;;;;;;;37.22;22.27;;;25.70;49.20;;;;;;5002917;28;20188;-71
2022/11/14 12:09:04;;;;;;;38.75;23.85;;;25.30;49.90;;;;;;4916416;29;20200;-71
2022/11/14 12:11:34;;;;;;;40.28;25.10;;;25.10;50.70;;;;;;4910517;29;20230;-70
2022/11/14 12:14:18;;;;;;;37.72;24.25;;;25.00;50.60;;;;;;4908409;29;20408;-70
2022/11/14 12:17:11;;;;;;;38.85;25.13;;;25.10;52.50;;;;;;4905628;29;20199;-70
2022/11/14 12:19:45;;;;;;;41.20;25.67;;;25.10;53.70;;;;;;4911492;29;20602;-69
2022/11/14 12:22:20;;;;;;;38.95;24.80;;;25.10;51.00;;;;;;4910293;29;20279;-70
2022/11/14 12:25:12;;;;;;;39.35;24.38;;;24.90;50.70;;;;;;4910340;29;20219;-70
2022/11/14 12:27:55;;;;;;;37.17;24.75;;;24.80;50.50;;;;;;4905601;29;20192;-70
2022/11/14 12:30:23;;;;;;;43.78;26.08;;;24.80;51.00;;;;;;4893385;29;20223;-70
2022/11/14 12:32:56;;;;;;;35.15;22.10;;;24.80;50.80;;;;;;4914068;29;20214;-70
2022/11/14 12:35:33;;;;;;;36.60;24.80;;;24.80;51.10;;;;;;4910515;29;20263;-70
2022/11/14 12:38:03;;;;;;;40.58;25.90;;;24.80;50.80;;;;;;4910815;29;20274;-70
2022/11/14 12:40:35;;;;;;;40.30;23.88;;;24.80;50.80;;;;;;4911400;29;20189;-70
2022/11/14 12:43:02;;;;;;;38.28;25.15;;;24.60;53.00;;;;;;4919742;29;20198;-72
2022/11/14 12:45:40;;;;;;;32.63;24.10;;;24.50;50.60;;;;;;4954687;28;20200;-72
2022/11/14 12:48:24;;;;;;;41.75;25.90;;;24.20;51.50;;;;;;5002912;28;20193;-72